createdAt,value
2018-06-15T00:02:26.253Z,17.83
2018-06-15T00:04:54.863Z,17.80
2018-06-15T00:07:23.076Z,17.83
2018-06-15T00:09:51.250Z,17.79
2018-06-15T00:12:19.430Z,17.79
2018-06-15T00:14:47.610Z,17.76
2018-06-15T00:17:15.791Z,17.78
2018-06-15T00:19:43.960Z,17.71
2018-06-15T00:22:12.137Z,17.71
2018-06-15T00:24:40.319Z,17.69
2018-06-15T00:27:08.496Z,17.73
2018-06-15T00:29:36.685Z,17.72
2018-06-15T00:32:04.857Z,17.69
2018-06-15T00:34:33.044Z,17.70
2018-06-15T00:37:01.219Z,17.69
2018-06-15T00:39:29.391Z,17.68
2018-06-15T00:41:57.570Z,17.67
2018-06-15T00:44:25.766Z,17.71
2018-06-15T00:46:53.935Z,17.70
2018-06-15T00:49:22.100Z,17.69
2018-06-15T00:51:50.281Z,17.70
2018-06-15T00:54:18.446Z,17.65
2018-06-15T00:56:57.983Z,17.65
2018-06-15T00:59:26.162Z,17.65
2018-06-15T01:01:54.338Z,17.66
2018-06-15T01:04:22.506Z,17.69
2018-06-15T01:06:50.680Z,17.68
2018-06-15T01:09:18.866Z,17.67
2018-06-15T01:11:47.058Z,17.64
2018-06-15T01:14:15.218Z,17.65
2018-06-15T01:16:43.724Z,17.64
2018-06-15T01:19:11.897Z,17.65
2018-06-15T01:21:40.074Z,17.64
2018-06-15T01:24:08.314Z,17.63
2018-06-15T01:26:36.590Z,17.62
2018-06-15T01:29:04.772Z,17.60
2018-06-15T01:31:32.962Z,17.54
2018-06-15T01:34:01.166Z,17.50
2018-06-15T01:36:29.350Z,17.50
2018-06-15T01:38:57.660Z,17.48
2018-06-15T01:41:25.843Z,17.47
2018-06-15T01:43:54.011Z,17.47
2018-06-15T01:46:22.191Z,17.50
2018-06-15T01:48:50.372Z,17.52
2018-06-15T01:51:18.530Z,17.50
2018-06-15T01:53:46.715Z,17.51
2018-06-15T01:56:14.883Z,17.52
2018-06-15T01:58:43.054Z,17.55
2018-06-15T02:01:11.315Z,17.58
2018-06-15T02:03:39.435Z,17.57
2018-06-15T02:06:07.614Z,17.58
2018-06-15T02:08:35.803Z,17.57
2018-06-15T02:11:03.980Z,17.57
2018-06-15T02:13:32.213Z,17.55
2018-06-15T02:16:00.479Z,17.56
2018-06-15T02:18:28.865Z,17.52
2018-06-15T02:20:57.034Z,17.50
2018-06-15T02:23:25.222Z,17.49
2018-06-15T02:25:53.383Z,17.51
2018-06-15T02:28:21.562Z,17.51
2018-06-15T02:30:50.031Z,17.52
2018-06-15T02:33:18.423Z,17.50
2018-06-15T02:35:46.623Z,17.51
2018-06-15T02:38:14.795Z,17.54
2018-06-15T02:40:43.142Z,17.54
2018-06-15T02:43:11.329Z,17.54
2018-06-15T02:45:39.504Z,17.55
2018-06-15T02:48:07.702Z,17.55
2018-06-15T02:50:36.153Z,17.54
2018-06-15T02:53:04.332Z,17.52
2018-06-15T02:55:33.332Z,17.55
2018-06-15T02:58:01.587Z,17.54
2018-06-15T03:00:29.776Z,17.53
2018-06-15T03:02:57.953Z,17.55
2018-06-15T03:05:26.137Z,17.51
2018-06-15T03:07:54.298Z,17.50
2018-06-15T03:10:22.466Z,17.51
2018-06-15T03:12:50.671Z,17.51
2018-06-15T03:15:18.893Z,17.50
2018-06-15T03:17:47.058Z,17.54
2018-06-15T03:20:15.227Z,17.54
2018-06-15T03:22:43.398Z,17.50
2018-06-15T03:25:11.618Z,17.53
2018-06-15T03:27:39.779Z,17.55
2018-06-15T03:30:07.974Z,17.56
2018-06-15T03:32:36.142Z,17.56
2018-06-15T03:35:04.310Z,17.52
2018-06-15T03:37:32.516Z,17.48
2018-06-15T03:40:00.691Z,17.51
2018-06-15T03:42:28.887Z,17.52
2018-06-15T03:44:57.075Z,17.54
2018-06-15T03:47:25.259Z,17.53
2018-06-15T03:49:53.436Z,17.53
2018-06-15T03:52:21.617Z,17.55
2018-06-15T03:54:49.789Z,17.53
2018-06-15T03:57:17.971Z,17.51
2018-06-15T03:59:46.158Z,17.52
2018-06-15T04:02:14.326Z,17.50
2018-06-15T04:04:42.490Z,17.40
2018-06-15T04:07:10.670Z,17.38
2018-06-15T04:09:38.838Z,17.38
2018-06-15T04:12:07.051Z,17.37
2018-06-15T04:14:35.220Z,17.42
2018-06-15T04:17:03.390Z,17.48
2018-06-15T04:19:31.587Z,17.52
2018-06-15T04:21:59.756Z,17.53
2018-06-15T04:24:27.926Z,17.56
2018-06-15T04:26:56.110Z,17.59
2018-06-15T04:29:24.294Z,17.64
2018-06-15T04:31:52.466Z,17.59
2018-06-15T04:34:20.663Z,17.64
2018-06-15T04:36:48.852Z,17.61
2018-06-15T04:39:17.010Z,17.62
2018-06-15T04:41:45.186Z,17.63
2018-06-15T04:44:15.258Z,17.70
2018-06-15T04:46:43.427Z,17.70
2018-06-15T04:49:11.818Z,17.76
2018-06-15T04:51:40.029Z,17.83
2018-06-15T04:54:08.211Z,17.81
2018-06-15T04:56:36.378Z,17.86
2018-06-15T04:59:04.569Z,17.93
2018-06-15T05:01:32.730Z,18.05
2018-06-15T05:04:00.915Z,18.08
2018-06-15T05:06:29.082Z,18.15
2018-06-15T05:08:57.266Z,18.22
2018-06-15T05:11:25.425Z,18.24
2018-06-15T05:13:53.594Z,18.26
2018-06-15T05:16:21.762Z,18.32
2018-06-15T05:18:49.930Z,18.38
2018-06-15T05:21:18.092Z,18.33
2018-06-15T05:23:46.282Z,18.27
2018-06-15T05:26:14.502Z,18.33
2018-06-15T05:28:42.678Z,18.45
2018-06-15T05:31:10.847Z,18.54
2018-06-15T05:33:39.033Z,18.64
2018-06-15T05:36:07.218Z,18.68
2018-06-15T05:38:35.379Z,18.70
2018-06-15T05:41:03.590Z,18.68
2018-06-15T05:43:31.766Z,18.69
2018-06-15T05:45:59.940Z,18.79
2018-06-15T05:48:28.091Z,18.84
2018-06-15T05:50:56.303Z,18.78
2018-06-15T05:53:24.475Z,18.78
2018-06-15T05:55:52.634Z,18.86
2018-06-15T05:58:20.782Z,18.88
2018-06-15T06:00:48.935Z,18.86
2018-06-15T06:03:19.975Z,18.93
2018-06-15T06:05:48.863Z,18.99
2018-06-15T06:08:18.987Z,19.02
2018-06-15T06:10:47.610Z,19.06
2018-06-15T06:13:15.777Z,19.03
2018-06-15T06:15:43.987Z,19.03
2018-06-15T06:18:12.199Z,19.01
2018-06-15T06:20:40.399Z,19.07
2018-06-15T06:23:08.588Z,19.15
2018-06-15T06:25:36.750Z,19.32
2018-06-15T06:28:04.945Z,19.59
2018-06-15T06:30:33.118Z,19.76
2018-06-15T06:33:01.347Z,19.81
2018-06-15T06:35:29.643Z,19.91
2018-06-15T06:37:57.803Z,20.04
2018-06-15T06:40:25.947Z,19.99
2018-06-15T06:42:54.102Z,19.94
2018-06-15T06:45:22.263Z,19.89
2018-06-15T06:47:50.422Z,19.88
2018-06-15T06:50:18.571Z,19.92
2018-06-15T06:52:46.731Z,19.97
2018-06-15T06:55:14.886Z,20.06
2018-06-15T06:57:43.066Z,20.09
2018-06-15T07:00:11.279Z,20.22
2018-06-15T07:02:39.435Z,20.16
2018-06-15T07:05:07.615Z,20.23
2018-06-15T07:07:35.782Z,20.35
2018-06-15T07:10:04.003Z,20.40
2018-06-15T07:12:32.402Z,20.34
2018-06-15T07:15:00.570Z,20.34
2018-06-15T07:17:28.778Z,20.31
2018-06-15T07:19:56.958Z,20.26
2018-06-15T07:22:25.162Z,20.13
2018-06-15T07:24:53.318Z,20.03
2018-06-15T07:27:21.798Z,19.88
2018-06-15T07:29:49.970Z,19.75
2018-06-15T07:32:18.123Z,19.76
2018-06-15T07:34:46.274Z,19.63
2018-06-15T07:37:14.464Z,19.86
2018-06-15T07:39:42.630Z,20.08
2018-06-15T07:42:10.783Z,20.23
2018-06-15T07:44:38.963Z,20.45
2018-06-15T07:47:07.154Z,20.58
2018-06-15T07:49:35.298Z,20.52
2018-06-15T07:52:03.464Z,20.60
2018-06-15T07:54:31.634Z,20.73
2018-06-15T07:57:00.087Z,20.87
2018-06-15T07:59:28.287Z,21.00
2018-06-15T08:01:56.430Z,21.01
2018-06-15T08:04:25.735Z,20.70
2018-06-15T08:06:53.910Z,20.73
2018-06-15T08:09:22.091Z,20.86
2018-06-15T08:11:50.255Z,21.10
2018-06-15T08:14:18.434Z,21.30
2018-06-15T08:16:46.600Z,21.35
2018-06-15T08:19:14.753Z,21.46
2018-06-15T08:21:42.923Z,21.54
2018-06-15T08:24:11.071Z,21.59
2018-06-15T08:26:39.220Z,21.64
2018-06-15T08:29:07.406Z,21.71
2018-06-15T08:31:35.575Z,21.64
2018-06-15T08:34:03.743Z,21.71
2018-06-15T08:36:31.911Z,21.76
2018-06-15T08:39:00.079Z,21.90
2018-06-15T08:41:28.231Z,22.03
2018-06-15T08:43:56.410Z,22.22
2018-06-15T08:46:24.582Z,22.28
2018-06-15T08:48:52.774Z,22.51
2018-06-15T08:51:20.942Z,22.53
2018-06-15T08:53:49.165Z,22.60
2018-06-15T08:56:17.343Z,22.60
2018-06-15T08:58:45.526Z,22.85
2018-06-15T09:01:13.686Z,23.18
2018-06-15T09:03:41.842Z,23.47
2018-06-15T09:06:10.011Z,23.82
2018-06-15T09:08:38.178Z,24.11
2018-06-15T09:11:06.390Z,24.14
2018-06-15T09:13:34.778Z,24.35
2018-06-15T09:16:02.974Z,24.57
2018-06-15T09:18:31.372Z,24.80
2018-06-15T09:20:59.552Z,24.58
2018-06-15T09:23:27.738Z,24.42
2018-06-15T09:25:55.900Z,24.24
2018-06-15T09:28:24.066Z,23.87
2018-06-15T09:30:52.854Z,23.67
2018-06-15T09:33:21.020Z,23.51
2018-06-15T09:35:50.023Z,23.14
2018-06-15T09:38:18.190Z,23.13
2018-06-15T09:40:46.350Z,23.15
2018-06-15T09:43:14.527Z,23.20
2018-06-15T09:45:42.695Z,23.29
2018-06-15T09:48:10.886Z,23.31
2018-06-15T09:50:39.084Z,23.44
2018-06-15T09:53:07.255Z,23.55
2018-06-15T09:55:35.419Z,23.87
2018-06-15T09:58:03.594Z,23.90
2018-06-15T10:00:37.158Z,23.76
2018-06-15T10:03:05.342Z,23.76
2018-06-15T10:05:33.523Z,23.72
2018-06-15T10:08:01.721Z,24.03
2018-06-15T10:10:29.897Z,24.49
2018-06-15T10:12:58.106Z,25.27
2018-06-15T10:15:26.349Z,25.79
2018-06-15T10:17:54.492Z,26.50
2018-06-15T10:20:22.662Z,26.76
2018-06-15T10:22:50.830Z,26.48
2018-06-15T10:25:19.023Z,26.92
2018-06-15T10:27:47.286Z,27.48
2018-06-15T10:30:15.574Z,27.95
2018-06-15T10:32:43.827Z,27.96
2018-06-15T10:35:12.000Z,27.97
2018-06-15T10:37:40.230Z,27.65
2018-06-15T10:40:08.427Z,26.83
2018-06-15T10:42:36.630Z,26.32
2018-06-15T10:45:04.884Z,26.13
2018-06-15T10:47:33.088Z,26.42
2018-06-15T10:50:01.283Z,27.36
2018-06-15T10:52:29.523Z,28.12
2018-06-15T10:54:57.682Z,28.56
2018-06-15T10:57:25.830Z,29.12
2018-06-15T10:59:54.015Z,29.58
2018-06-15T11:02:22.212Z,29.69
2018-06-15T11:04:50.358Z,29.77
2018-06-15T11:07:18.522Z,30.11
2018-06-15T11:09:46.748Z,30.21
2018-06-15T11:12:14.895Z,29.54
2018-06-15T11:14:43.318Z,29.03
2018-06-15T11:17:11.495Z,28.63
2018-06-15T11:19:39.650Z,27.99
2018-06-15T11:22:07.854Z,27.69
2018-06-15T11:24:36.059Z,27.24
2018-06-15T11:27:04.259Z,27.06
2018-06-15T11:29:32.998Z,27.26
2018-06-15T11:32:01.174Z,27.91
2018-06-15T11:34:30.262Z,27.78
2018-06-15T11:36:58.435Z,27.37
2018-06-15T11:39:26.603Z,27.35
2018-06-15T11:41:54.769Z,27.56
2018-06-15T11:44:22.926Z,27.61
2018-06-15T11:46:51.186Z,27.32
2018-06-15T11:49:19.367Z,27.18
2018-06-15T11:51:47.522Z,27.51
2018-06-15T11:54:15.686Z,28.11
2018-06-15T11:56:43.851Z,28.58
2018-06-15T11:59:12.007Z,29.10
2018-06-15T12:01:40.171Z,29.00
2018-06-15T12:04:08.322Z,28.62
2018-06-15T12:06:36.496Z,29.00
2018-06-15T12:09:06.694Z,29.01
2018-06-15T12:11:34.866Z,29.29
2018-06-15T12:14:03.095Z,28.81
2018-06-15T12:16:31.278Z,28.01
2018-06-15T12:18:59.441Z,27.99
2018-06-15T12:21:27.590Z,27.68
2018-06-15T12:23:55.766Z,27.33
2018-06-15T12:26:24.107Z,27.24
2018-06-15T12:28:52.259Z,26.97
2018-06-15T12:31:20.427Z,26.83
2018-06-15T12:33:48.629Z,26.81
2018-06-15T12:36:16.834Z,26.77
2018-06-15T12:38:45.028Z,26.75
2018-06-15T12:41:13.423Z,26.60
2018-06-15T12:43:41.766Z,26.65
2018-06-15T12:46:09.927Z,26.83
2018-06-15T12:48:38.103Z,26.57
2018-06-15T12:51:06.313Z,26.46
2018-06-15T12:53:34.463Z,26.52
2018-06-15T12:56:02.633Z,26.64
2018-06-15T12:58:30.799Z,26.51
2018-06-15T13:00:58.968Z,26.44
2018-06-15T13:03:27.362Z,26.19
2018-06-15T13:05:55.715Z,26.04
2018-06-15T13:08:23.894Z,26.04
2018-06-15T13:10:52.083Z,25.95
2018-06-15T13:13:20.252Z,25.97
2018-06-15T13:15:48.418Z,25.96
2018-06-15T13:18:16.665Z,26.11
2018-06-15T13:20:44.836Z,26.20
2018-06-15T13:23:13.104Z,26.22
2018-06-15T13:25:41.272Z,26.28
2018-06-15T13:28:09.439Z,26.25
2018-06-15T13:30:37.611Z,26.24
2018-06-15T13:33:05.775Z,26.33
2018-06-15T13:35:33.971Z,26.19
2018-06-15T13:38:02.181Z,25.87
2018-06-15T13:40:30.410Z,26.06
2018-06-15T13:42:58.643Z,26.12
2018-06-15T13:45:26.847Z,26.18
2018-06-15T13:47:55.026Z,26.30
2018-06-15T13:50:23.367Z,26.56
2018-06-15T13:52:51.567Z,26.81
2018-06-15T13:55:19.763Z,26.99
2018-06-15T13:57:48.010Z,26.97
2018-06-15T14:00:17.027Z,27.12
2018-06-15T14:02:45.174Z,26.94
2018-06-15T14:05:13.353Z,26.90
2018-06-15T14:07:41.511Z,26.93
2018-06-15T14:10:09.738Z,26.90
2018-06-15T14:12:38.107Z,26.89
2018-06-15T14:15:06.270Z,26.95
2018-06-15T14:17:34.482Z,26.85
2018-06-15T14:20:02.666Z,26.76
2018-06-15T14:22:30.838Z,26.73
2018-06-15T14:24:59.048Z,26.67
2018-06-15T14:27:27.300Z,26.74
2018-06-15T14:29:55.454Z,26.81
2018-06-15T14:32:24.104Z,26.93
2018-06-15T14:34:52.282Z,27.02
2018-06-15T14:37:20.506Z,27.07
2018-06-15T14:39:48.775Z,26.94
2018-06-15T14:42:16.942Z,26.92
2018-06-15T14:44:45.115Z,26.85
2018-06-15T14:47:13.295Z,26.86
2018-06-15T14:49:41.463Z,26.84
2018-06-15T14:52:09.627Z,26.80
2018-06-15T14:54:37.818Z,27.10
2018-06-15T14:57:06.012Z,27.22
2018-06-15T14:59:34.258Z,27.48
2018-06-15T15:02:02.431Z,27.51
2018-06-15T15:04:30.619Z,27.50
2018-06-15T15:06:58.859Z,27.47
2018-06-15T15:09:27.156Z,27.28
2018-06-15T15:11:55.325Z,26.92
2018-06-15T15:14:23.866Z,26.71
2018-06-15T15:16:52.014Z,26.53
2018-06-15T15:19:20.253Z,26.50
2018-06-15T15:21:48.346Z,26.57
2018-06-15T15:24:16.523Z,26.61
2018-06-15T15:26:44.683Z,26.54
2018-06-15T15:29:12.877Z,26.56
2018-06-15T15:31:41.042Z,26.58
2018-06-15T15:34:09.215Z,26.60
2018-06-15T15:36:39.129Z,26.62
2018-06-15T15:39:09.026Z,26.54
2018-06-15T15:41:37.243Z,26.44
2018-06-15T15:44:05.392Z,26.53
2018-06-15T15:46:33.668Z,26.58
2018-06-15T15:49:01.858Z,26.56
2018-06-15T15:51:30.519Z,26.44
2018-06-15T15:53:58.785Z,26.39
2018-06-15T15:56:28.299Z,26.27
2018-06-15T15:58:56.509Z,26.10
2018-06-15T16:01:24.719Z,26.02
2018-06-15T16:03:53.026Z,25.91
2018-06-15T16:06:21.235Z,25.84
2018-06-15T16:08:49.423Z,25.76
2018-06-15T16:11:17.595Z,25.64
2018-06-15T16:13:45.766Z,25.58
2018-06-15T16:16:13.938Z,25.53
2018-06-15T16:18:42.193Z,25.47
2018-06-15T16:21:10.379Z,25.50
2018-06-15T16:23:38.575Z,25.46
2018-06-15T16:26:06.855Z,25.41
2018-06-15T16:28:35.122Z,25.31
2018-06-15T16:31:03.501Z,25.28
2018-06-15T16:33:31.726Z,25.30
2018-06-15T16:35:59.906Z,25.29
2018-06-15T16:38:28.095Z,25.24
2018-06-15T16:40:56.288Z,25.21
2018-06-15T16:43:24.965Z,25.21
2018-06-15T16:45:53.466Z,25.27
2018-06-15T16:48:24.189Z,25.29
2018-06-15T16:50:53.611Z,25.29
2018-06-15T16:53:21.774Z,25.32
2018-06-15T16:55:49.978Z,25.34
2018-06-15T16:58:18.200Z,25.36
2018-06-15T17:00:46.436Z,25.39
2018-06-15T17:03:14.643Z,25.58
2018-06-15T17:05:42.830Z,25.77
2018-06-15T17:08:11.070Z,25.87
2018-06-15T17:10:39.766Z,25.85
2018-06-15T17:13:07.938Z,25.81
2018-06-15T17:15:36.565Z,25.82
2018-06-15T17:18:05.252Z,25.76
2018-06-15T17:20:33.431Z,25.79
2018-06-15T17:23:01.779Z,25.83
2018-06-15T17:25:29.970Z,25.73
2018-06-15T17:27:58.192Z,25.73
2018-06-15T17:30:26.414Z,25.68
2018-06-15T17:32:54.606Z,25.54
2018-06-15T17:35:22.803Z,25.47
2018-06-15T17:37:50.982Z,25.32
2018-06-15T17:40:19.166Z,25.22
2018-06-15T17:42:47.342Z,25.13
2018-06-15T17:45:15.531Z,25.03
2018-06-15T17:47:43.802Z,25.00
2018-06-15T17:50:11.982Z,24.72
2018-06-15T17:52:41.103Z,24.60
2018-06-15T17:55:09.294Z,24.69
2018-06-15T17:57:37.510Z,24.68
2018-06-15T18:00:05.995Z,24.61
2018-06-15T18:02:34.166Z,24.63
2018-06-15T18:05:02.697Z,24.59
2018-06-15T18:07:31.261Z,24.66
2018-06-15T18:09:59.642Z,24.65
2018-06-15T18:12:27.914Z,24.68
2018-06-15T18:14:56.198Z,24.61
2018-06-15T18:17:24.425Z,24.58
2018-06-15T18:19:52.603Z,24.57
2018-06-15T18:22:20.782Z,24.47
2018-06-15T18:24:49.074Z,24.33
2018-06-15T18:27:17.280Z,24.33
2018-06-15T18:29:45.683Z,24.28
2018-06-15T18:32:13.806Z,24.21
2018-06-15T18:34:41.995Z,24.19
2018-06-15T18:37:10.172Z,24.13
2018-06-15T18:39:38.373Z,24.15
2018-06-15T18:42:06.587Z,24.12
2018-06-15T18:44:34.787Z,24.04
2018-06-15T18:47:03.007Z,24.04
2018-06-15T18:49:31.126Z,24.10
2018-06-15T18:51:59.334Z,24.10
2018-06-15T18:54:27.528Z,24.12
2018-06-15T18:56:55.758Z,24.14
2018-06-15T18:59:23.932Z,24.11
2018-06-15T19:01:52.137Z,24.06
2018-06-15T19:04:21.132Z,24.02
2018-06-15T19:06:49.911Z,23.96
2018-06-15T19:09:18.117Z,23.89
2018-06-15T19:11:46.302Z,23.81
2018-06-15T19:14:14.466Z,23.72
2018-06-15T19:16:42.683Z,23.63
2018-06-15T19:19:10.840Z,23.62
2018-06-15T19:21:39.014Z,23.56
2018-06-15T19:24:07.222Z,23.56
2018-06-15T19:26:35.432Z,23.50
2018-06-15T19:29:03.696Z,23.46
2018-06-15T19:31:31.794Z,23.41
2018-06-15T19:33:59.958Z,23.31
2018-06-15T19:36:28.126Z,23.23
2018-06-15T19:38:56.296Z,23.14
2018-06-15T19:41:24.667Z,23.08
2018-06-15T19:43:52.839Z,22.99
2018-06-15T19:46:21.847Z,22.96
2018-06-15T19:48:50.040Z,22.90
2018-06-15T19:51:18.206Z,22.83
2018-06-15T19:53:46.377Z,22.80
2018-06-15T19:56:14.546Z,22.73
2018-06-15T19:58:42.731Z,22.67
2018-06-15T20:01:10.910Z,22.60
2018-06-15T20:03:39.112Z,22.54
2018-06-15T20:06:07.300Z,22.52
2018-06-15T20:08:35.494Z,22.44
2018-06-15T20:11:03.681Z,22.38
2018-06-15T20:13:31.847Z,22.28
2018-06-15T20:16:00.029Z,22.18
2018-06-15T20:18:28.190Z,22.10
2018-06-15T20:20:56.356Z,22.05
2018-06-15T20:23:24.554Z,22.00
2018-06-15T20:25:52.742Z,21.92
2018-06-15T20:28:20.914Z,21.84
2018-06-15T20:30:49.110Z,21.78
2018-06-15T20:33:17.275Z,21.78
2018-06-15T20:35:45.442Z,21.76
2018-06-15T20:38:13.594Z,21.74
2018-06-15T20:40:41.856Z,21.71
2018-06-15T20:43:10.021Z,21.72
2018-06-15T20:45:38.178Z,21.73
2018-06-15T20:48:06.482Z,21.73
2018-06-15T20:50:34.638Z,21.71
2018-06-15T20:53:03.160Z,21.64
2018-06-15T20:55:31.398Z,21.58
2018-06-15T20:57:59.570Z,21.52
2018-06-15T21:00:27.872Z,21.44
2018-06-15T21:02:56.026Z,21.38
2018-06-15T21:05:24.186Z,21.32
2018-06-15T21:07:52.362Z,21.22
2018-06-15T21:10:20.510Z,21.13
2018-06-15T21:12:48.691Z,21.05
2018-06-15T21:15:17.007Z,21.01
2018-06-15T21:17:45.170Z,20.94
2018-06-15T21:20:13.346Z,20.88
2018-06-15T21:22:41.566Z,20.80
2018-06-15T21:25:09.743Z,20.72
2018-06-15T21:27:38.077Z,20.66
2018-06-15T21:30:06.274Z,20.59
2018-06-15T21:32:34.431Z,20.49
2018-06-15T21:35:02.574Z,20.39
2018-06-15T21:37:30.722Z,20.30
2018-06-15T21:39:58.888Z,20.25
2018-06-15T21:42:27.104Z,20.24
2018-06-15T21:44:55.195Z,20.29
2018-06-15T21:47:23.363Z,20.37
2018-06-15T21:49:51.523Z,20.39
2018-06-15T21:52:19.742Z,20.44
2018-06-15T21:54:47.939Z,20.45
2018-06-15T21:57:16.106Z,20.49
2018-06-15T21:59:44.258Z,20.53
2018-06-15T22:02:12.424Z,20.50
2018-06-15T22:04:40.575Z,20.50
2018-06-15T22:07:08.771Z,20.45
2018-06-15T22:09:36.938Z,20.41
2018-06-15T22:12:05.121Z,20.37
2018-06-15T22:14:33.263Z,20.29
2018-06-15T22:17:01.427Z,20.25
2018-06-15T22:19:29.585Z,20.24
2018-06-15T22:21:57.750Z,20.23
2018-06-15T22:24:25.902Z,20.21
2018-06-15T22:26:54.063Z,20.15
2018-06-15T22:29:22.223Z,20.10
2018-06-15T22:31:50.414Z,20.09
2018-06-15T22:34:18.573Z,20.08
2018-06-15T22:36:46.743Z,20.04
2018-06-15T22:39:15.946Z,20.02
2018-06-15T22:41:44.226Z,19.99
2018-06-15T22:44:13.042Z,19.96
2018-06-15T22:46:42.011Z,19.96
2018-06-15T22:49:11.006Z,19.99
2018-06-15T22:51:39.583Z,20.00
2018-06-15T22:54:07.754Z,20.00
2018-06-15T22:56:35.930Z,20.01
2018-06-15T22:59:04.086Z,20.00
2018-06-15T23:01:32.430Z,19.98
2018-06-15T23:04:00.762Z,19.97
2018-06-15T23:06:28.987Z,19.93
2018-06-15T23:08:57.135Z,19.92
2018-06-15T23:11:25.317Z,19.86
2018-06-15T23:13:53.503Z,19.82
2018-06-15T23:16:21.660Z,19.80
2018-06-15T23:18:49.818Z,19.83
2018-06-15T23:21:17.994Z,19.85
2018-06-15T23:23:46.184Z,19.83
2018-06-15T23:26:14.350Z,19.82
2018-06-15T23:28:42.515Z,19.83
2018-06-15T23:31:10.696Z,19.88
2018-06-15T23:33:38.885Z,19.86
2018-06-15T23:36:07.046Z,19.83
2018-06-15T23:38:35.214Z,19.78
2018-06-15T23:41:03.379Z,19.73
2018-06-15T23:43:31.543Z,19.68
2018-06-15T23:45:59.762Z,19.62
2018-06-15T23:48:27.928Z,19.59
2018-06-15T23:50:56.194Z,19.52
2018-06-15T23:53:24.403Z,19.47
2018-06-15T23:55:52.518Z,19.42
2018-06-15T23:58:20.678Z,19.36
